createdAt,value
2022-12-15T00:00:32.666Z,30.5
2022-12-15T00:01:32.680Z,33
2022-12-15T00:02:32.826Z,36.1429
2022-12-15T00:03:33.222Z,32.3571
2022-12-15T00:04:32.782Z,32.2143
2022-12-15T00:05:32.819Z,33.7143
2022-12-15T00:06:32.899Z,32.1429
2022-12-15T00:07:32.881Z,31.5
2022-12-15T00:08:32.920Z,35.8571
2022-12-15T00:09:32.932Z,35.3571
2022-12-15T00:10:32.961Z,33.4286
2022-12-15T00:11:32.997Z,32.2143
2022-12-15T00:12:33.020Z,28.5
2022-12-15T00:13:33.414Z,30.2143
2022-12-15T00:14:33.092Z,32.8571
2022-12-15T00:15:33.117Z,32.9286
2022-12-15T00:16:33.187Z,32.1429
2022-12-15T00:17:33.190Z,36.4286
2022-12-15T00:18:33.215Z,32.4286
2022-12-15T00:19:33.247Z,28.9286
2022-12-15T00:20:33.278Z,33.6429
2022-12-15T00:21:33.300Z,33.6429
2022-12-15T00:22:33.333Z,33.5
2022-12-15T00:23:33.790Z,33.5
2022-12-15T00:24:33.402Z,33.9286
2022-12-15T00:25:33.427Z,29.9286
2022-12-15T00:26:33.461Z,31.1429
2022-12-15T00:27:33.486Z,28.9286
2022-12-15T00:28:33.509Z,28.5
2022-12-15T00:29:33.551Z,30.2143
2022-12-15T00:30:33.580Z,31.1429
2022-12-15T00:31:33.686Z,29.5
2022-12-15T00:32:33.651Z,31
2022-12-15T00:33:33.921Z,29.7143
2022-12-15T00:34:33.715Z,30.9286
2022-12-15T00:35:33.744Z,29.6429
2022-12-15T00:36:33.775Z,28.9286
2022-12-15T00:37:33.799Z,28.2143
2022-12-15T00:38:33.835Z,31.7143
2022-12-15T00:39:33.869Z,30.4286
2022-12-15T00:40:33.899Z,31.9286
2022-12-15T00:41:33.936Z,32.8571
2022-12-15T00:42:33.959Z,32.6429
2022-12-15T00:43:34.443Z,31.2143
2022-12-15T00:44:34.027Z,29.7143
2022-12-15T00:45:34.056Z,32.3571
2022-12-15T00:46:34.110Z,30.6429
2022-12-15T00:47:34.119Z,34
2022-12-15T00:48:34.150Z,31.8571
2022-12-15T00:49:34.179Z,34
2022-12-15T00:50:34.212Z,30
2022-12-15T00:51:34.243Z,33
2022-12-15T00:52:34.283Z,29.9286
2022-12-15T00:53:34.313Z,31.1429
2022-12-15T00:54:34.347Z,32.2143
2022-12-15T00:55:34.374Z,31.2143
2022-12-15T00:56:34.402Z,31.8571
2022-12-15T00:57:34.427Z,31.6429
2022-12-15T00:58:34.463Z,30.3571
2022-12-15T00:59:34.532Z,32.4286
2022-12-15T01:00:34.539Z,31.7143
2022-12-15T01:01:34.688Z,32.8571
2022-12-15T01:02:34.771Z,32.7143
2022-12-15T01:03:35.318Z,32.2143
2022-12-15T01:04:34.660Z,34.2143
2022-12-15T01:05:34.707Z,29.1429
2022-12-15T01:06:34.744Z,31.8571
2022-12-15T01:07:34.766Z,28.1429
2022-12-15T01:08:34.796Z,32.2143
2022-12-15T01:09:34.819Z,33.1429
2022-12-15T01:10:34.847Z,32.8571
2022-12-15T01:11:34.875Z,32.5
2022-12-15T01:12:34.915Z,32.4286
2022-12-15T01:13:34.944Z,32
2022-12-15T01:14:34.979Z,31.4286
2022-12-15T01:15:35.018Z,31.7143
2022-12-15T01:16:35.150Z,32.7143
2022-12-15T01:17:35.076Z,34.9286
2022-12-15T01:18:35.103Z,32.9286
2022-12-15T01:19:35.139Z,32
2022-12-15T01:20:35.167Z,30.6429
2022-12-15T01:21:35.202Z,31.8571
2022-12-15T01:22:35.229Z,33.5
2022-12-15T01:23:35.440Z,32.4286
2022-12-15T01:24:35.284Z,33.8571
2022-12-15T01:25:35.320Z,32
2022-12-15T01:26:35.350Z,32.6429
2022-12-15T01:27:35.381Z,34.9286
2022-12-15T01:28:35.407Z,32.7143
2022-12-15T01:29:35.442Z,34.2143
2022-12-15T01:30:35.466Z,34.7143
2022-12-15T01:31:35.563Z,35
2022-12-15T01:32:35.534Z,34.6429
2022-12-15T01:33:35.591Z,37.7143
2022-12-15T01:34:35.591Z,34.3571
2022-12-15T01:35:35.615Z,37.1429
2022-12-15T01:36:35.645Z,31.5
2022-12-15T01:37:35.678Z,30.3571
2022-12-15T01:38:35.709Z,34.8571
2022-12-15T01:39:35.725Z,33.5
2022-12-15T01:40:35.765Z,32.4286
2022-12-15T01:41:35.794Z,37.8571
2022-12-15T01:42:35.825Z,33.3571
2022-12-15T01:43:36.112Z,31.3571
2022-12-15T01:44:35.872Z,32.6429
2022-12-15T01:45:35.904Z,32.8571
2022-12-15T01:46:35.991Z,36.7143
2022-12-15T01:47:35.971Z,33.7143
2022-12-15T01:48:36.005Z,34
2022-12-15T01:49:36.044Z,35.3571
2022-12-15T01:50:36.081Z,36.9286
2022-12-15T01:51:36.122Z,34.9286
2022-12-15T01:52:36.150Z,37.1429
2022-12-15T01:53:36.185Z,34.4286
2022-12-15T01:54:36.213Z,38.2143
2022-12-15T01:55:36.245Z,32.3571
2022-12-15T01:56:37.967Z,34.8571
2022-12-15T01:57:36.314Z,32.6429
2022-12-15T01:58:36.343Z,34.7143
2022-12-15T01:59:36.388Z,32.2143
2022-12-15T02:00:36.498Z,34.8571
2022-12-15T02:01:36.594Z,33.2143
2022-12-15T02:02:40.224Z,32
2022-12-15T02:03:36.765Z,34.9286
2022-12-15T02:04:36.530Z,33
2022-12-15T02:05:36.577Z,33
2022-12-15T02:06:36.594Z,34.9286
2022-12-15T02:07:36.619Z,32.7143
2022-12-15T02:08:36.666Z,33.9286
2022-12-15T02:09:36.697Z,34.3571
2022-12-15T02:10:36.736Z,34.8571
2022-12-15T02:11:36.762Z,35.3571
2022-12-15T02:12:36.793Z,31.1429
2022-12-15T02:13:36.819Z,34.6429
2022-12-15T02:14:36.851Z,33.3571
2022-12-15T02:15:36.881Z,32.9286
2022-12-15T02:16:36.971Z,33.1429
2022-12-15T02:17:36.941Z,34.8571
2022-12-15T02:18:36.978Z,35.4286
2022-12-15T02:19:36.993Z,32.9286
2022-12-15T02:20:37.021Z,34.5
2022-12-15T02:21:37.056Z,32.9286
2022-12-15T02:22:37.096Z,31.7143
2022-12-15T02:23:37.132Z,34.1429
2022-12-15T02:24:37.161Z,32
2022-12-15T02:25:37.190Z,34.5
2022-12-15T02:26:37.222Z,32.1429
2022-12-15T02:27:37.256Z,33.9286
2022-12-15T02:28:37.283Z,32.2143
2022-12-15T02:29:37.314Z,33.6429
2022-12-15T02:30:37.351Z,34.1429
2022-12-15T02:31:37.548Z,35.5
2022-12-15T02:32:37.405Z,33.7143
2022-12-15T02:33:37.420Z,33.9286
2022-12-15T02:34:37.458Z,34.5
2022-12-15T02:35:37.485Z,33.3571
2022-12-15T02:36:37.517Z,34.1429
2022-12-15T02:37:37.541Z,34.2143
2022-12-15T02:38:37.569Z,33.9286
2022-12-15T02:39:37.607Z,35.7143
2022-12-15T02:40:37.627Z,34
2022-12-15T02:41:37.663Z,35.3571
2022-12-15T02:42:37.688Z,34.4286
2022-12-15T02:43:37.730Z,36
2022-12-15T02:44:37.752Z,37.3571
2022-12-15T02:45:37.808Z,33.4286
2022-12-15T02:46:37.837Z,36.5
2022-12-15T02:47:37.841Z,37.1429
2022-12-15T02:48:37.871Z,37.4286
2022-12-15T02:49:37.897Z,37.3571
2022-12-15T02:50:37.928Z,37.1429
2022-12-15T02:51:37.953Z,34.3571
2022-12-15T02:52:37.981Z,32.4286
2022-12-15T02:53:38.012Z,33.4286
2022-12-15T02:54:38.040Z,36.9286
2022-12-15T02:55:38.078Z,32.6429
2022-12-15T02:56:38.107Z,33.8571
2022-12-15T02:57:38.131Z,34
2022-12-15T02:58:38.166Z,35.6429
2022-12-15T02:59:38.208Z,31.2143
2022-12-15T03:00:38.303Z,34.4286
2022-12-15T03:01:38.476Z,35.3571
2022-12-15T03:02:38.441Z,34.4286
2022-12-15T03:03:38.418Z,35.9286
2022-12-15T03:04:38.359Z,34.3571
2022-12-15T03:05:38.388Z,36.4286
2022-12-15T03:06:38.414Z,35.8571
2022-12-15T03:07:38.441Z,37.6429
2022-12-15T03:08:38.470Z,37.3571
2022-12-15T03:09:38.509Z,36.1429
2022-12-15T03:10:38.523Z,36.9286
2022-12-15T03:11:38.557Z,37.2143
2022-12-15T03:12:38.594Z,35
2022-12-15T03:13:38.634Z,34
2022-12-15T03:14:38.659Z,36.7143
2022-12-15T03:15:38.696Z,35.9286
2022-12-15T03:16:38.801Z,38.2143
2022-12-15T03:17:38.745Z,34.9286
2022-12-15T03:18:38.776Z,35.7143
2022-12-15T03:19:38.802Z,35.6429
2022-12-15T03:20:38.838Z,36.4286
2022-12-15T03:21:38.874Z,36.6429
2022-12-15T03:22:38.899Z,35.3571
2022-12-15T03:23:38.943Z,37.1429
2022-12-15T03:24:38.962Z,35.3571
2022-12-15T03:25:39.007Z,34.6429
2022-12-15T03:26:39.031Z,34.1429
2022-12-15T03:27:39.063Z,35.2143
2022-12-15T03:28:39.091Z,36.9286
2022-12-15T03:29:39.120Z,37.3571
2022-12-15T03:30:39.157Z,35.9286
2022-12-15T03:31:39.236Z,36.1429
2022-12-15T03:32:39.211Z,36.3571
2022-12-15T03:33:39.241Z,37.6429
2022-12-15T03:34:39.299Z,36.1429
2022-12-15T03:35:39.311Z,37.1429
2022-12-15T03:36:39.337Z,35.5
2022-12-15T03:37:39.365Z,38.1429
2022-12-15T03:38:39.414Z,35.6429
2022-12-15T03:39:39.451Z,35.3571
2022-12-15T03:40:39.478Z,37.7143
2022-12-15T03:41:39.511Z,39.3571
2022-12-15T03:42:39.547Z,38
2022-12-15T03:43:39.578Z,37.7143
2022-12-15T03:44:39.607Z,35.2143
2022-12-15T03:45:39.703Z,35.8571
2022-12-15T03:46:39.659Z,36.6429
2022-12-15T03:47:39.695Z,36.2143
2022-12-15T03:48:39.714Z,38.1429
2022-12-15T03:49:39.752Z,37.5
2022-12-15T03:50:39.783Z,37.7143
2022-12-15T03:51:39.816Z,36.4286
2022-12-15T03:52:39.852Z,38.8571
2022-12-15T03:53:39.873Z,38
2022-12-15T03:54:39.905Z,38.1429
2022-12-15T03:55:39.931Z,37.7143
2022-12-15T03:56:39.971Z,37.9286
2022-12-15T03:57:40.000Z,38
2022-12-15T03:58:40.038Z,35.8571
2022-12-15T03:59:40.066Z,39
2022-12-15T04:00:40.098Z,39.6429
2022-12-15T04:01:40.212Z,40.8571
2022-12-15T04:02:40.242Z,40.9286
2022-12-15T04:03:40.286Z,42.5
2022-12-15T04:04:40.228Z,43.6429
2022-12-15T04:05:40.256Z,35
2022-12-15T04:06:40.288Z,39.3571
2022-12-15T04:07:40.320Z,40.2143
2022-12-15T04:08:40.344Z,39.9286
2022-12-15T04:09:40.373Z,40.9286
2022-12-15T04:10:40.391Z,42.6429
2022-12-15T04:11:40.427Z,41.8571
2022-12-15T04:12:40.454Z,43.1429
2022-12-15T04:13:40.484Z,39
2022-12-15T04:14:40.518Z,41.2143
2022-12-15T04:15:40.546Z,41.7143
2022-12-15T04:16:40.671Z,41.7143
2022-12-15T04:17:40.606Z,41.5
2022-12-15T04:18:40.639Z,42.3571
2022-12-15T04:19:40.664Z,44.6429
2022-12-15T04:20:40.747Z,41.6429
2022-12-15T04:21:40.724Z,43.1429
2022-12-15T04:22:40.758Z,40.2143
2022-12-15T04:23:40.782Z,41.1429
2022-12-15T04:24:40.811Z,39.1429
2022-12-15T04:25:40.843Z,42.6429
2022-12-15T04:26:40.875Z,40.3571
2022-12-15T04:27:40.907Z,42.8571
2022-12-15T04:28:40.925Z,42.9286
2022-12-15T04:29:40.956Z,43.9286
2022-12-15T04:30:41.052Z,42.7143
2022-12-15T04:31:41.026Z,43.1429
2022-12-15T04:32:41.056Z,41.4286
2022-12-15T04:33:41.098Z,41.5
2022-12-15T04:34:41.121Z,41.9286
2022-12-15T04:35:41.162Z,41.7143
2022-12-15T04:36:41.178Z,40.1429
2022-12-15T04:37:41.204Z,43.8571
2022-12-15T04:38:50.314Z,41.2143
2022-12-15T04:39:41.267Z,44.6429
2022-12-15T04:40:41.294Z,42
2022-12-15T04:41:41.335Z,41.7143
2022-12-15T04:42:41.370Z,43.1429
2022-12-15T04:43:41.394Z,41.1429
2022-12-15T04:44:41.430Z,41.5
2022-12-15T04:45:41.480Z,39.3571
2022-12-15T04:46:41.566Z,42.6429
2022-12-15T04:47:41.528Z,41.5
2022-12-15T04:48:41.554Z,43.3571
2022-12-15T04:49:41.590Z,41.2143
2022-12-15T04:50:41.625Z,42.9286
2022-12-15T04:51:41.665Z,38.3571
2022-12-15T04:52:41.692Z,38.5
2022-12-15T04:53:41.727Z,40.6429
2022-12-15T04:54:41.757Z,38.9286
2022-12-15T04:55:41.784Z,35.5
2022-12-15T04:56:41.809Z,35.5
2022-12-15T04:57:41.837Z,35.6429
2022-12-15T04:58:41.871Z,35.8571
2022-12-15T04:59:41.894Z,35.7143
2022-12-15T05:00:41.936Z,37.9286
2022-12-15T05:01:42.098Z,34.5
2022-12-15T05:02:42.034Z,33.7143
2022-12-15T05:03:42.028Z,33.2143
2022-12-15T05:04:42.157Z,34.3571
2022-12-15T05:05:42.093Z,33.5
2022-12-15T05:06:42.134Z,35
2022-12-15T05:07:42.157Z,33
2022-12-15T05:08:42.189Z,35.5
2022-12-15T05:09:42.219Z,36.4286
2022-12-15T05:10:42.251Z,34.7143
2022-12-15T05:11:42.281Z,34.1429
2022-12-15T05:12:42.312Z,33.2143
2022-12-15T05:13:42.345Z,33.6429
2022-12-15T05:14:42.384Z,34
2022-12-15T05:15:42.461Z,34.6429
2022-12-15T05:16:42.495Z,32.8571
2022-12-15T05:17:42.512Z,33.1429
2022-12-15T05:18:42.491Z,33.3571
2022-12-15T05:19:42.523Z,32.8571
2022-12-15T05:20:42.560Z,34.5
2022-12-15T05:21:42.599Z,33.2143
2022-12-15T05:22:42.627Z,32.1429
2022-12-15T05:23:42.648Z,35.9286
2022-12-15T05:24:42.684Z,32.5
2022-12-15T05:25:42.714Z,35.8571
2022-12-15T05:26:44.675Z,35.1429
2022-12-15T05:27:42.781Z,33.4286
2022-12-15T05:28:42.799Z,35
2022-12-15T05:29:42.843Z,34
2022-12-15T05:30:42.894Z,35.5
2022-12-15T05:31:42.902Z,34.4286
2022-12-15T05:32:42.932Z,36.1429
2022-12-15T05:33:42.962Z,37.8571
2022-12-15T05:34:42.990Z,34.4286
2022-12-15T05:35:43.025Z,34.6429
2022-12-15T05:36:43.053Z,34.8571
2022-12-15T05:37:43.075Z,37
2022-12-15T05:38:43.094Z,35.8571
2022-12-15T05:39:43.132Z,35.9286
2022-12-15T05:40:43.146Z,38.3571
2022-12-15T05:41:43.186Z,38.8571
2022-12-15T05:42:43.230Z,38.5
2022-12-15T05:43:43.257Z,38
2022-12-15T05:44:43.286Z,38.1429
2022-12-15T05:45:43.316Z,35.4286
2022-12-15T05:46:43.445Z,38.5
2022-12-15T05:47:43.379Z,35.3571
2022-12-15T05:48:43.406Z,34.6429
2022-12-15T05:49:43.433Z,38.6429
2022-12-15T05:50:43.474Z,39.2143
2022-12-15T05:51:43.510Z,36
2022-12-15T05:52:49.033Z,34.8571
2022-12-15T05:53:43.569Z,35.8571
2022-12-15T05:54:43.604Z,34.8571
2022-12-15T05:55:43.634Z,37.5
2022-12-15T05:56:43.675Z,35.5
2022-12-15T05:57:43.713Z,37.8571
2022-12-15T05:58:45.468Z,36
2022-12-15T05:59:43.774Z,35.4286
2022-12-15T06:00:43.795Z,35.5
2022-12-15T06:01:43.876Z,37.3571
2022-12-15T06:02:43.894Z,35.2143
2022-12-15T06:03:43.887Z,37.7143
2022-12-15T06:04:43.937Z,36.7143
2022-12-15T06:05:43.943Z,37.5
2022-12-15T06:06:43.972Z,37.1429
2022-12-15T06:07:44.002Z,38.4286
2022-12-15T06:08:44.038Z,39.8571
2022-12-15T06:09:44.072Z,36.5
2022-12-15T06:10:44.088Z,38.9286
2022-12-15T06:11:44.121Z,36.7143
2022-12-15T06:12:44.159Z,39.4286
2022-12-15T06:13:44.190Z,37.6429
2022-12-15T06:14:44.218Z,37.4286
2022-12-15T06:15:44.341Z,37
2022-12-15T06:16:51.085Z,38
2022-12-15T06:17:44.306Z,38
2022-12-15T06:18:44.340Z,40.9286
2022-12-15T06:19:44.363Z,39.5
2022-12-15T06:20:44.396Z,38.9286
2022-12-15T06:21:44.427Z,34
2022-12-15T06:22:49.696Z,36.7143
2022-12-15T06:23:44.481Z,33.7143
2022-12-15T06:24:44.510Z,38.1429
2022-12-15T06:25:44.539Z,38.4286
2022-12-15T06:26:44.569Z,38.2143
2022-12-15T06:27:44.596Z,38.8571
2022-12-15T06:28:44.624Z,36.7143
2022-12-15T06:29:44.662Z,35.9286
2022-12-15T06:30:44.693Z,35.3571
2022-12-15T06:31:44.797Z,39.5
2022-12-15T06:32:44.763Z,36.3571
2022-12-15T06:33:44.791Z,37.9286
2022-12-15T06:34:44.814Z,35
2022-12-15T06:35:44.843Z,34.1429
2022-12-15T06:36:44.862Z,36.6429
2022-12-15T06:37:44.900Z,36.8571
2022-12-15T06:38:44.939Z,39.3571
2022-12-15T06:39:44.965Z,36.4286
2022-12-15T06:40:45.000Z,33.8571
2022-12-15T06:41:45.022Z,36.8571
2022-12-15T06:42:45.055Z,37.1429
2022-12-15T06:43:45.090Z,37.6429
2022-12-15T06:44:45.119Z,37.2143
2022-12-15T06:45:45.158Z,36.1429
2022-12-15T06:46:45.253Z,38.1429
2022-12-15T06:47:45.204Z,35.4286
2022-12-15T06:48:45.236Z,36.4286
2022-12-15T06:49:45.276Z,34.6429
2022-12-15T06:50:45.309Z,36.2143
2022-12-15T06:51:45.364Z,36.2143
2022-12-15T06:52:45.361Z,36.6429
2022-12-15T06:53:45.379Z,34.8571
2022-12-15T06:54:45.404Z,38.6429
2022-12-15T06:55:45.435Z,38.9286
2022-12-15T06:56:45.466Z,35.9286
2022-12-15T06:57:45.495Z,36.5
2022-12-15T06:58:45.529Z,38
2022-12-15T06:59:45.562Z,35.7143
2022-12-15T07:00:45.587Z,35.8571
2022-12-15T07:01:45.899Z,36.6429
2022-12-15T07:02:48.289Z,38.1429
2022-12-15T07:03:45.844Z,34.9286
2022-12-15T07:04:45.711Z,36.8571
2022-12-15T07:05:45.765Z,36.2143
2022-12-15T07:06:45.778Z,37.2143
2022-12-15T07:07:45.801Z,34.9286
2022-12-15T07:08:45.830Z,37.8571
2022-12-15T07:09:45.857Z,38.1429
2022-12-15T07:10:45.896Z,38.2143
2022-12-15T07:11:45.925Z,36.4286
2022-12-15T07:12:45.965Z,39.5
2022-12-15T07:13:46.014Z,36.3571
2022-12-15T07:14:51.554Z,38.3571
2022-12-15T07:15:46.094Z,38
2022-12-15T07:16:46.223Z,37.3571
2022-12-15T07:17:46.122Z,37
2022-12-15T07:18:46.148Z,39.9286
2022-12-15T07:19:46.176Z,37.8571
2022-12-15T07:20:46.207Z,38.1429
2022-12-15T07:21:46.234Z,39.3571
2022-12-15T07:22:46.250Z,37.5
2022-12-15T07:23:54.594Z,37.9286
2022-12-15T07:24:46.312Z,34.7143
2022-12-15T07:25:46.344Z,38
2022-12-15T07:26:46.397Z,38.5
2022-12-15T07:27:46.407Z,35.6429
2022-12-15T07:28:46.452Z,35.9286
2022-12-15T07:29:46.476Z,36.1429
2022-12-15T07:30:46.511Z,34.6429
2022-12-15T07:31:46.643Z,35.1429
2022-12-15T07:32:50.233Z,35.8571
2022-12-15T07:33:46.613Z,36.2143
2022-12-15T07:34:46.642Z,36.2143
2022-12-15T07:35:46.683Z,35.5
2022-12-15T07:36:51.816Z,36.7143
2022-12-15T07:37:46.738Z,35
2022-12-15T07:38:50.863Z,39.6429
2022-12-15T07:39:46.798Z,35.2143
2022-12-15T07:40:46.820Z,37.2143
2022-12-15T07:41:46.855Z,33.6429
2022-12-15T07:42:46.881Z,38.2143
2022-12-15T07:43:46.911Z,37.4286
2022-12-15T07:44:46.928Z,37.6429
2022-12-15T07:45:51.372Z,36.4286
2022-12-15T07:46:46.988Z,35.9286
2022-12-15T07:47:47.028Z,38.3571
2022-12-15T07:48:50.111Z,35.7143
2022-12-15T07:49:47.086Z,35.7143
2022-12-15T07:50:47.116Z,37.5
2022-12-15T07:51:47.148Z,36.7143
2022-12-15T07:52:47.178Z,33.3571
2022-12-15T07:53:47.210Z,33.4286
2022-12-15T07:54:47.235Z,33.8571
2022-12-15T07:56:06.195Z,36.4286
2022-12-15T07:56:50.325Z,35.5
2022-12-15T07:57:47.336Z,34
2022-12-15T07:58:47.355Z,34
2022-12-15T07:59:47.397Z,35.5
2022-12-15T08:00:49.039Z,35.1429
2022-12-15T08:01:47.722Z,35.1429
2022-12-15T08:02:47.709Z,36.7143
2022-12-15T08:03:47.616Z,33.3571
2022-12-15T08:04:48.100Z,35.8571
2022-12-15T08:05:47.583Z,35.2143
2022-12-15T08:06:47.620Z,34.5
2022-12-15T08:07:47.652Z,32.4286
2022-12-15T08:08:50.324Z,36.2143
2022-12-15T08:09:47.696Z,34.9286
2022-12-15T08:10:47.722Z,37.6429
2022-12-15T08:11:47.751Z,35.3571
2022-12-15T08:12:47.779Z,36.5
2022-12-15T08:14:04.052Z,36.1429
2022-12-15T08:14:50.059Z,33
2022-12-15T08:15:47.872Z,35.7143
2022-12-15T08:16:48.040Z,36.8571
2022-12-15T08:17:47.927Z,37.9286
2022-12-15T08:18:47.965Z,34.8571
2022-12-15T08:19:48.020Z,33.6429
2022-12-15T08:20:50.265Z,33.8571
2022-12-15T08:21:48.064Z,33.4286
2022-12-15T08:22:48.086Z,34.1429
2022-12-15T08:23:48.159Z,33.7143
2022-12-15T08:24:48.145Z,34.8571
2022-12-15T08:25:48.183Z,32.9286
2022-12-15T08:26:50.323Z,34.5
2022-12-15T08:27:48.237Z,33.2143
2022-12-15T08:28:48.277Z,34.6429
2022-12-15T08:29:50.985Z,35.5
2022-12-15T08:30:48.338Z,33.8571
2022-12-15T08:31:48.424Z,36.1429
2022-12-15T08:32:51.932Z,32.2143
2022-12-15T08:33:48.418Z,34.3571
2022-12-15T08:34:48.448Z,34
2022-12-15T08:35:56.769Z,34.7143
2022-12-15T08:36:48.527Z,37.1429
2022-12-15T08:37:48.551Z,34.5
2022-12-15T08:38:48.588Z,35.1429
2022-12-15T08:39:48.599Z,32.4286
2022-12-15T08:40:48.636Z,34.2143
2022-12-15T08:41:48.659Z,34
2022-12-15T08:42:48.693Z,36.1429
2022-12-15T08:43:49.334Z,35.9286
2022-12-15T08:44:48.757Z,34.7143
2022-12-15T08:45:48.834Z,34.4286
2022-12-15T08:46:48.818Z,37.4286
2022-12-15T08:47:48.847Z,35.5
2022-12-15T08:48:48.890Z,35.9286
2022-12-15T08:49:48.915Z,34.1429
2022-12-15T08:50:48.953Z,32.2143
2022-12-15T08:51:50.200Z,31.5
2022-12-15T08:53:13.757Z,34.5
2022-12-15T08:53:49.402Z,37.2143
2022-12-15T08:54:49.069Z,32.7143
2022-12-15T08:55:49.091Z,33.1429
2022-12-15T08:56:49.125Z,33.3571
2022-12-15T08:57:49.161Z,33.2143
2022-12-15T08:58:49.196Z,34.3571
2022-12-15T08:59:49.254Z,34.7143
2022-12-15T09:00:49.325Z,32.7143
2022-12-15T09:01:49.479Z,32.9286
2022-12-15T09:02:49.373Z,31.7143
2022-12-15T09:03:49.359Z,32.2143
2022-12-15T09:04:49.547Z,32.6429
2022-12-15T09:05:49.403Z,32.6429
2022-12-15T09:06:50.720Z,30.3571
2022-12-15T09:07:49.458Z,33.8571
2022-12-15T09:08:50.529Z,32.5
2022-12-15T09:09:49.525Z,32.8571
2022-12-15T09:10:52.585Z,32.1429
2022-12-15T09:11:49.589Z,33.1429
2022-12-15T09:12:49.621Z,31.8571
2022-12-15T09:13:49.652Z,35.2143
2022-12-15T09:14:49.681Z,33.9286
2022-12-15T09:16:09.006Z,31.7143
2022-12-15T09:16:50.657Z,30.9286
2022-12-15T09:17:49.777Z,33.2143
2022-12-15T09:18:49.797Z,34.9286
2022-12-15T09:19:49.829Z,31.1429
2022-12-15T09:20:49.858Z,34.3571
2022-12-15T09:21:49.887Z,32.4286
2022-12-15T09:22:50.227Z,32.3571
2022-12-15T09:23:49.939Z,34.9286
2022-12-15T09:24:49.977Z,31.7143
2022-12-15T09:25:50.011Z,31.5
2022-12-15T09:26:50.038Z,32.2143
2022-12-15T09:27:50.067Z,31.3571
2022-12-15T09:28:50.956Z,32.7143
2022-12-15T09:29:50.124Z,33.5
2022-12-15T09:30:50.199Z,32.5
2022-12-15T09:31:50.180Z,31.4286
2022-12-15T09:32:50.225Z,34.4286
2022-12-15T09:33:50.244Z,33.1429
2022-12-15T09:34:50.272Z,29.5
2022-12-15T09:35:50.307Z,33.3571
2022-12-15T09:36:50.346Z,33.2143
2022-12-15T09:37:51.896Z,32.5
2022-12-15T09:38:50.404Z,31.7143
2022-12-15T09:39:50.429Z,35.2143
2022-12-15T09:40:50.466Z,33.9286
2022-12-15T09:41:50.494Z,33.9286
2022-12-15T09:42:59.783Z,33.4286
2022-12-15T09:43:50.906Z,34.7143
2022-12-15T09:44:50.595Z,34.8571
2022-12-15T09:45:50.663Z,33.2143
2022-12-15T09:46:50.776Z,31
2022-12-15T09:47:50.680Z,31.1429
2022-12-15T09:48:50.723Z,34.8571
2022-12-15T09:49:50.762Z,33.9286
2022-12-15T09:50:50.787Z,31.4286
2022-12-15T09:51:50.806Z,34
2022-12-15T09:52:50.840Z,34.2143
2022-12-15T09:53:55.549Z,33.9286
2022-12-15T09:54:50.936Z,33.9286
2022-12-15T09:55:50.924Z,33
2022-12-15T09:56:50.958Z,31.4286
2022-12-15T09:57:50.990Z,30.1429
2022-12-15T09:58:51.014Z,33.5
2022-12-15T09:59:51.043Z,35.9286
2022-12-15T10:00:52.607Z,32.2143
2022-12-15T10:01:51.132Z,31.7143
2022-12-15T10:02:51.381Z,31.3571
2022-12-15T10:03:51.298Z,31.4286
2022-12-15T10:04:51.210Z,33.4286
2022-12-15T10:06:14.800Z,31.6429
2022-12-15T10:06:51.272Z,32.3571
2022-12-15T10:07:51.294Z,32.3571
2022-12-15T10:08:51.331Z,30.8571
2022-12-15T10:09:51.356Z,30.3571
2022-12-15T10:10:51.387Z,30.7143
2022-12-15T10:11:51.422Z,30.1429
2022-12-15T10:13:01.051Z,33
2022-12-15T10:13:51.490Z,30.5
2022-12-15T10:14:51.518Z,32.1429
2022-12-15T10:15:51.597Z,30.9286
2022-12-15T10:16:51.586Z,32
2022-12-15T10:17:51.608Z,32.4286
2022-12-15T10:18:54.775Z,32.3571
2022-12-15T10:19:51.659Z,31.6429
2022-12-15T10:20:51.689Z,30.6429
2022-12-15T10:21:51.721Z,31.9286
2022-12-15T10:22:51.753Z,32.8571
2022-12-15T10:23:51.913Z,33.7143
2022-12-15T10:25:10.471Z,33.3571
2022-12-15T10:25:51.840Z,32.1429
2022-12-15T10:26:51.869Z,32.4286
2022-12-15T10:27:51.894Z,33.2143
2022-12-15T10:28:51.931Z,32.3571
2022-12-15T10:29:52.036Z,34.6429
2022-12-15T10:30:52.054Z,33
2022-12-15T10:31:52.015Z,32.2143
2022-12-15T10:32:52.074Z,31.3571
2022-12-15T10:33:52.080Z,33.5
2022-12-15T10:34:52.167Z,29.8571
2022-12-15T10:35:52.141Z,34.5
2022-12-15T10:36:52.181Z,36.8571
2022-12-15T10:37:52.206Z,33.4286
2022-12-15T10:38:52.244Z,34.8571
2022-12-15T10:39:52.268Z,35.1429
2022-12-15T10:40:52.308Z,33.4286
2022-12-15T10:41:52.336Z,34
2022-12-15T10:42:52.388Z,34.4286
2022-12-15T10:43:52.408Z,33.2143
2022-12-15T10:44:52.432Z,33.5
2022-12-15T10:45:52.499Z,33.1429
2022-12-15T10:46:52.553Z,33.7143
2022-12-15T10:47:52.520Z,35.2143
2022-12-15T10:48:52.557Z,33.3571
2022-12-15T10:49:52.587Z,34
2022-12-15T10:50:52.617Z,33.3571
2022-12-15T10:51:52.645Z,35.2143
2022-12-15T10:52:52.683Z,37.5
2022-12-15T10:53:52.722Z,35.4286
2022-12-15T10:54:52.747Z,33
2022-12-15T10:55:52.780Z,33.9286
2022-12-15T10:56:52.819Z,34
2022-12-15T10:57:52.840Z,32.7143
2022-12-15T10:58:52.885Z,33.6429
2022-12-15T10:59:52.915Z,36.7143
2022-12-15T11:00:52.944Z,33.8571
2022-12-15T11:01:53.179Z,39.4286
2022-12-15T11:02:53.159Z,35
2022-12-15T11:03:53.315Z,37.6429
2022-12-15T11:04:53.072Z,35.1429
2022-12-15T11:05:53.096Z,37
2022-12-15T11:06:53.139Z,34.3571
2022-12-15T11:07:53.167Z,35.2143
2022-12-15T11:08:53.204Z,35.7143
2022-12-15T11:09:53.233Z,35.7143
2022-12-15T11:10:53.264Z,37.6429
2022-12-15T11:11:53.289Z,34.7143
2022-12-15T11:12:58.407Z,33.7143
2022-12-15T11:13:53.376Z,34.7143
2022-12-15T11:14:53.395Z,36.1429
2022-12-15T11:15:55.140Z,35.1429
2022-12-15T11:16:53.459Z,37.1429
2022-12-15T11:17:53.485Z,34.6429
2022-12-15T11:18:53.859Z,35.8571
2022-12-15T11:19:58.202Z,37.8571
2022-12-15T11:20:53.585Z,35.3571
2022-12-15T11:21:53.609Z,36.1429
2022-12-15T11:22:53.642Z,35.1429
2022-12-15T11:23:53.757Z,35.4286
2022-12-15T11:24:53.709Z,36.7143
2022-12-15T11:25:53.754Z,37.8571
2022-12-15T11:26:53.779Z,37.8571
2022-12-15T11:27:53.808Z,35.4286
2022-12-15T11:28:53.830Z,36.7143
2022-12-15T11:29:53.867Z,37.2143
2022-12-15T11:30:53.928Z,33.9286
2022-12-15T11:31:53.926Z,36.2143
2022-12-15T11:32:53.961Z,36.8571
2022-12-15T11:33:54.228Z,36.3571
2022-12-15T11:34:54.021Z,34.4286
2022-12-15T11:35:54.050Z,33.3571
2022-12-15T11:36:54.088Z,34.2143
2022-12-15T11:37:54.118Z,36.4286
2022-12-15T11:38:54.203Z,33.9286
2022-12-15T11:39:54.171Z,35.3571
2022-12-15T11:40:54.208Z,34
2022-12-15T11:41:54.228Z,35.7143
2022-12-15T11:42:54.265Z,36
2022-12-15T11:43:54.290Z,35.2143
2022-12-15T11:44:54.328Z,34.1429
2022-12-15T11:45:54.352Z,36.5
2022-12-15T11:46:54.406Z,35.1429
2022-12-15T11:47:54.434Z,38.5
2022-12-15T11:48:54.456Z,41
2022-12-15T11:49:54.498Z,36
2022-12-15T11:50:54.522Z,36.5
2022-12-15T11:51:54.544Z,37.3571
2022-12-15T11:52:54.576Z,32.9286
2022-12-15T11:53:54.610Z,37.5
2022-12-15T11:54:54.639Z,36.8571
2022-12-15T11:55:54.674Z,35
2022-12-15T11:56:54.695Z,36.7143
2022-12-15T11:57:54.733Z,37.7143
2022-12-15T11:58:54.818Z,39.1429
2022-12-15T11:59:54.795Z,37.3571
2022-12-15T12:00:54.824Z,37.6429
2022-12-15T12:02:02.426Z,35.3571
2022-12-15T12:02:55.004Z,35.3571
2022-12-15T12:03:54.907Z,38.2143
2022-12-15T12:04:54.941Z,35.8571
2022-12-15T12:05:54.962Z,36.7143
2022-12-15T12:06:54.993Z,36.7143
2022-12-15T12:07:55.022Z,35.4286
2022-12-15T12:08:55.048Z,38.2143
2022-12-15T12:09:55.084Z,35.2143
2022-12-15T12:10:55.216Z,36.6429
2022-12-15T12:11:55.156Z,36.2143
2022-12-15T12:12:55.176Z,35.9286
2022-12-15T12:13:55.207Z,36.2143
2022-12-15T12:14:55.238Z,36.8571
2022-12-15T12:15:55.262Z,35.4286
2022-12-15T12:16:55.289Z,36.6429
2022-12-15T12:17:55.324Z,36.3571
2022-12-15T12:18:55.407Z,35.6429
2022-12-15T12:19:55.366Z,39
2022-12-15T12:20:55.393Z,35.5
2022-12-15T12:21:55.440Z,33.9286
2022-12-15T12:22:55.469Z,34.2143